sensor_id;sensor_type;location;lat;lon;timestamp;P1;durP1;ratioP1;P2;durP2;ratioP2
63882;SDS011;50047;50.596;30.466;2022-10-16T00:01:32;17.30;;;7.40;;
63882;SDS011;50047;50.596;30.466;2022-10-16T00:03:59;16.60;;;7.80;;
63882;SDS011;50047;50.596;30.466;2022-10-16T00:06:29;13.00;;;6.90;;
63882;SDS011;50047;50.596;30.466;2022-10-16T00:08:56;11.80;;;7.20;;
63882;SDS011;50047;50.596;30.466;2022-10-16T00:11:25;15.30;;;6.00;;
63882;SDS011;50047;50.596;30.466;2022-10-16T00:13:55;13.60;;;7.10;;
63882;SDS011;50047;50.596;30.466;2022-10-16T00:16:25;13.00;;;7.60;;
63882;SDS011;50047;50.596;30.466;2022-10-16T00:18:52;14.70;;;7.30;;
63882;SDS011;50047;50.596;30.466;2022-10-16T00:21:22;14.60;;;7.40;;
63882;SDS011;50047;50.596;30.466;2022-10-16T00:23:55;15.60;;;7.70;;
63882;SDS011;50047;50.596;30.466;2022-10-16T00:26:26;17.20;;;8.20;;
63882;SDS011;50047;50.596;30.466;2022-10-16T00:28:55;15.10;;;7.60;;
63882;SDS011;50047;50.596;30.466;2022-10-16T00:31:22;13.70;;;7.70;;
63882;SDS011;50047;50.596;30.466;2022-10-16T00:33:50;17.20;;;8.30;;
63882;SDS011;50047;50.596;30.466;2022-10-16T00:36:18;15.60;;;8.60;;
63882;SDS011;50047;50.596;30.466;2022-10-16T00:38:49;17.00;;;7.90;;
63882;SDS011;50047;50.596;30.466;2022-10-16T00:41:19;14.90;;;8.40;;
63882;SDS011;50047;50.596;30.466;2022-10-16T00:44:00;13.50;;;7.70;;
63882;SDS011;50047;50.596;30.466;2022-10-16T00:51:37;15.50;;;8.40;;
63882;SDS011;50047;50.596;30.466;2022-10-16T00:54:11;7.10;;;3.30;;
63882;SDS011;50047;50.596;30.466;2022-10-16T00:56:42;13.80;;;6.50;;
63882;SDS011;50047;50.596;30.466;2022-10-16T00:59:22;13.40;;;6.10;;
63882;SDS011;50047;50.596;30.466;2022-10-16T01:01:55;18.80;;;8.20;;
63882;SDS011;50047;50.596;30.466;2022-10-16T01:04:23;14.10;;;7.50;;
63882;SDS011;50047;50.596;30.466;2022-10-16T01:07:02;15.40;;;8.10;;
63882;SDS011;50047;50.596;30.466;2022-10-16T01:09:46;14.50;;;8.40;;
63882;SDS011;50047;50.596;30.466;2022-10-16T01:12:40;15.60;;;8.30;;
63882;SDS011;50047;50.596;30.466;2022-10-16T01:18:10;15.10;;;8.40;;
63882;SDS011;50047;50.596;30.466;2022-10-16T01:23:49;18.40;;;9.20;;
63882;SDS011;50047;50.596;30.466;2022-10-16T01:29:31;11.80;;;6.00;;
63882;SDS011;50047;50.596;30.466;2022-10-16T01:37:47;6.70;;;3.70;;
63882;SDS011;50047;50.596;30.466;2022-10-16T01:40:16;16.10;;;5.70;;
63882;SDS011;50047;50.596;30.466;2022-10-16T01:42:47;10.80;;;5.30;;
63882;SDS011;50047;50.596;30.466;2022-10-16T01:45:19;8.60;;;5.30;;
63882;SDS011;50047;50.596;30.466;2022-10-16T01:47:47;11.10;;;6.00;;
63882;SDS011;50047;50.596;30.466;2022-10-16T01:50:18;12.90;;;6.80;;
63882;SDS011;50047;50.596;30.466;2022-10-16T01:52:48;16.60;;;7.00;;
63882;SDS011;50047;50.596;30.466;2022-10-16T01:55:21;14.60;;;7.30;;
63882;SDS011;50047;50.596;30.466;2022-10-16T01:57:52;14.00;;;6.80;;
63882;SDS011;50047;50.596;30.466;2022-10-16T02:00:21;13.70;;;6.80;;
63882;SDS011;50047;50.596;30.466;2022-10-16T02:02:51;13.60;;;5.90;;
63882;SDS011;50047;50.596;30.466;2022-10-16T02:05:24;13.10;;;6.80;;
63882;SDS011;50047;50.596;30.466;2022-10-16T02:07:56;12.70;;;6.60;;
63882;SDS011;50047;50.596;30.466;2022-10-16T02:10:27;6.30;;;3.70;;
63882;SDS011;50047;50.596;30.466;2022-10-16T02:13:06;8.40;;;4.90;;
63882;SDS011;50047;50.596;30.466;2022-10-16T02:15:40;9.10;;;4.60;;
63882;SDS011;50047;50.596;30.466;2022-10-16T02:18:07;10.20;;;5.00;;
63882;SDS011;50047;50.596;30.466;2022-10-16T02:20:40;10.10;;;5.60;;
63882;SDS011;50047;50.596;30.466;2022-10-16T02:23:19;12.20;;;5.40;;
63882;SDS011;50047;50.596;30.466;2022-10-16T02:25:51;11.10;;;5.50;;
63882;SDS011;50047;50.596;30.466;2022-10-16T02:28:25;9.10;;;5.00;;
63882;SDS011;50047;50.596;30.466;2022-10-16T02:31:02;11.20;;;5.20;;
63882;SDS011;50047;50.596;30.466;2022-10-16T02:33:31;11.00;;;5.70;;
63882;SDS011;50047;50.596;30.466;2022-10-16T02:36:00;10.50;;;5.70;;
63882;SDS011;50047;50.596;30.466;2022-10-16T02:38:27;13.80;;;6.50;;
63882;SDS011;50047;50.596;30.466;2022-10-16T02:40:57;11.20;;;5.80;;
63882;SDS011;50047;50.596;30.466;2022-10-16T02:43:24;7.10;;;3.50;;
63882;SDS011;50047;50.596;30.466;2022-10-16T02:45:51;7.70;;;4.20;;
63882;SDS011;50047;50.596;30.466;2022-10-16T02:48:19;8.60;;;4.60;;
63882;SDS011;50047;50.596;30.466;2022-10-16T02:50:46;10.50;;;4.70;;
63882;SDS011;50047;50.596;30.466;2022-10-16T02:53:13;15.20;;;4.60;;
63882;SDS011;50047;50.596;30.466;2022-10-16T02:55:40;10.40;;;5.20;;
63882;SDS011;50047;50.596;30.466;2022-10-16T02:58:07;8.00;;;4.70;;
63882;SDS011;50047;50.596;30.466;2022-10-16T03:00:34;7.40;;;4.90;;
63882;SDS011;50047;50.596;30.466;2022-10-16T03:03:01;10.80;;;5.50;;
63882;SDS011;50047;50.596;30.466;2022-10-16T03:05:28;15.70;;;6.10;;
63882;SDS011;50047;50.596;30.466;2022-10-16T03:07:55;11.60;;;5.70;;
63882;SDS011;50047;50.596;30.466;2022-10-16T03:10:22;10.10;;;5.60;;
63882;SDS011;50047;50.596;30.466;2022-10-16T03:12:49;5.80;;;3.00;;
63882;SDS011;50047;50.596;30.466;2022-10-16T03:15:17;6.90;;;4.00;;
63882;SDS011;50047;50.596;30.466;2022-10-16T03:17:44;11.70;;;5.20;;
63882;SDS011;50047;50.596;30.466;2022-10-16T03:20:12;11.50;;;5.30;;
63882;SDS011;50047;50.596;30.466;2022-10-16T03:22:39;10.10;;;4.80;;
63882;SDS011;50047;50.596;30.466;2022-10-16T03:25:06;8.50;;;5.20;;
63882;SDS011;50047;50.596;30.466;2022-10-16T03:27:33;9.40;;;5.20;;
63882;SDS011;50047;50.596;30.466;2022-10-16T03:30:00;10.00;;;5.10;;
63882;SDS011;50047;50.596;30.466;2022-10-16T03:32:27;8.90;;;5.00;;
63882;SDS011;50047;50.596;30.466;2022-10-16T03:34:55;10.80;;;5.90;;
63882;SDS011;50047;50.596;30.466;2022-10-16T03:37:23;16.60;;;6.90;;
63882;SDS011;50047;50.596;30.466;2022-10-16T03:39:51;8.00;;;3.10;;
63882;SDS011;50047;50.596;30.466;2022-10-16T03:42:18;9.70;;;4.20;;
63882;SDS011;50047;50.596;30.466;2022-10-16T03:44:45;7.60;;;4.40;;
63882;SDS011;50047;50.596;30.466;2022-10-16T03:47:12;9.60;;;5.00;;
63882;SDS011;50047;50.596;30.466;2022-10-16T03:49:39;14.30;;;5.30;;
63882;SDS011;50047;50.596;30.466;2022-10-16T03:52:06;8.20;;;4.80;;
63882;SDS011;50047;50.596;30.466;2022-10-16T03:54:33;11.40;;;5.50;;
63882;SDS011;50047;50.596;30.466;2022-10-16T03:57:00;13.20;;;5.80;;
63882;SDS011;50047;50.596;30.466;2022-10-16T03:59:27;11.50;;;5.90;;
63882;SDS011;50047;50.596;30.466;2022-10-16T04:01:54;9.20;;;5.20;;
63882;SDS011;50047;50.596;30.466;2022-10-16T04:04:21;9.10;;;5.20;;
63882;SDS011;50047;50.596;30.466;2022-10-16T04:06:48;10.70;;;4.00;;
63882;SDS011;50047;50.596;30.466;2022-10-16T04:09:15;8.70;;;4.70;;
63882;SDS011;50047;50.596;30.466;2022-10-16T04:11:42;8.90;;;4.90;;
63882;SDS011;50047;50.596;30.466;2022-10-16T04:14:09;10.90;;;5.10;;
63882;SDS011;50047;50.596;30.466;2022-10-16T04:16:36;11.10;;;5.30;;
63882;SDS011;50047;50.596;30.466;2022-10-16T04:19:03;8.80;;;4.90;;
63882;SDS011;50047;50.596;30.466;2022-10-16T04:21:30;12.90;;;6.40;;
63882;SDS011;50047;50.596;30.466;2022-10-16T04:23:58;12.20;;;5.80;;
63882;SDS011;50047;50.596;30.466;2022-10-16T04:26:25;10.60;;;5.90;;
63882;SDS011;50047;50.596;30.466;2022-10-16T04:28:52;13.40;;;7.10;;
63882;SDS011;50047;50.596;30.466;2022-10-16T04:31:19;12.10;;;6.60;;
63882;SDS011;50047;50.596;30.466;2022-10-16T04:33:46;8.00;;;3.80;;
63882;SDS011;50047;50.596;30.466;2022-10-16T04:36:13;8.70;;;4.40;;
63882;SDS011;50047;50.596;30.466;2022-10-16T04:38:40;14.10;;;5.70;;
63882;SDS011;50047;50.596;30.466;2022-10-16T04:41:07;9.70;;;5.40;;
63882;SDS011;50047;50.596;30.466;2022-10-16T04:43:35;10.10;;;5.70;;
63882;SDS011;50047;50.596;30.466;2022-10-16T04:46:02;12.10;;;6.70;;
63882;SDS011;50047;50.596;30.466;2022-10-16T04:48:31;11.90;;;6.10;;
63882;SDS011;50047;50.596;30.466;2022-10-16T04:50:58;9.40;;;5.90;;
63882;SDS011;50047;50.596;30.466;2022-10-16T04:53:26;10.70;;;6.20;;
63882;SDS011;50047;50.596;30.466;2022-10-16T04:55:53;12.80;;;5.70;;
63882;SDS011;50047;50.596;30.466;2022-10-16T04:58:20;10.70;;;6.50;;
63882;SDS011;50047;50.596;30.466;2022-10-16T05:00:47;9.80;;;5.80;;
63882;SDS011;50047;50.596;30.466;2022-10-16T05:03:14;5.60;;;3.00;;
63882;SDS011;50047;50.596;30.466;2022-10-16T05:05:42;9.00;;;4.70;;
63882;SDS011;50047;50.596;30.466;2022-10-16T05:08:11;9.40;;;4.70;;
63882;SDS011;50047;50.596;30.466;2022-10-16T05:10:43;8.90;;;5.80;;
63882;SDS011;50047;50.596;30.466;2022-10-16T05:13:11;10.40;;;5.70;;
63882;SDS011;50047;50.596;30.466;2022-10-16T05:15:38;10.90;;;6.20;;
63882;SDS011;50047;50.596;30.466;2022-10-16T05:18:05;10.90;;;6.70;;
63882;SDS011;50047;50.596;30.466;2022-10-16T05:20:32;16.60;;;7.20;;
63882;SDS011;50047;50.596;30.466;2022-10-16T05:22:59;15.80;;;7.70;;
63882;SDS011;50047;50.596;30.466;2022-10-16T05:25:27;13.30;;;7.90;;
63882;SDS011;50047;50.596;30.466;2022-10-16T05:27:54;12.00;;;6.90;;
63882;SDS011;50047;50.596;30.466;2022-10-16T05:30:21;8.10;;;5.00;;
63882;SDS011;50047;50.596;30.466;2022-10-16T05:32:48;13.30;;;6.40;;
63882;SDS011;50047;50.596;30.466;2022-10-16T05:35:16;13.40;;;7.10;;
63882;SDS011;50047;50.596;30.466;2022-10-16T05:37:45;8.10;;;3.90;;
63882;SDS011;50047;50.596;30.466;2022-10-16T05:40:12;13.00;;;6.60;;
63882;SDS011;50047;50.596;30.466;2022-10-16T05:42:40;13.60;;;6.90;;
63882;SDS011;50047;50.596;30.466;2022-10-16T05:45:08;17.60;;;7.90;;
63882;SDS011;50047;50.596;30.466;2022-10-16T05:47:37;13.40;;;8.60;;
63882;SDS011;50047;50.596;30.466;2022-10-16T05:50:04;13.90;;;8.60;;
63882;SDS011;50047;50.596;30.466;2022-10-16T05:52:32;19.00;;;10.40;;
63882;SDS011;50047;50.596;30.466;2022-10-16T05:54:59;13.30;;;8.00;;
63882;SDS011;50047;50.596;30.466;2022-10-16T05:57:26;13.80;;;7.30;;
63882;SDS011;50047;50.596;30.466;2022-10-16T05:59:54;12.80;;;7.10;;
63882;SDS011;50047;50.596;30.466;2022-10-16T06:02:21;16.10;;;9.30;;
63882;SDS011;50047;50.596;30.466;2022-10-16T06:04:48;20.80;;;11.60;;
63882;SDS011;50047;50.596;30.466;2022-10-16T06:07:15;19.30;;;10.50;;
63882;SDS011;50047;50.596;30.466;2022-10-16T06:09:42;18.40;;;10.80;;
63882;SDS011;50047;50.596;30.466;2022-10-16T06:12:09;20.50;;;11.30;;
63882;SDS011;50047;50.596;30.466;2022-10-16T06:14:37;23.60;;;12.00;;
63882;SDS011;50047;50.596;30.466;2022-10-16T06:17:04;20.20;;;12.70;;
63882;SDS011;50047;50.596;30.466;2022-10-16T06:19:31;22.80;;;12.00;;
63882;SDS011;50047;50.596;30.466;2022-10-16T06:21:58;19.70;;;11.40;;
63882;SDS011;50047;50.596;30.466;2022-10-16T06:24:25;22.50;;;11.20;;
63882;SDS011;50047;50.596;30.466;2022-10-16T06:26:52;24.50;;;10.50;;
63882;SDS011;50047;50.596;30.466;2022-10-16T06:29:19;15.90;;;9.00;;
63882;SDS011;50047;50.596;30.466;2022-10-16T06:31:46;18.60;;;10.90;;
63882;SDS011;50047;50.596;30.466;2022-10-16T06:34:13;16.90;;;9.70;;
63882;SDS011;50047;50.596;30.466;2022-10-16T06:36:41;21.00;;;10.80;;
63882;SDS011;50047;50.596;30.466;2022-10-16T06:39:09;19.80;;;9.70;;
63882;SDS011;50047;50.596;30.466;2022-10-16T06:41:36;17.60;;;9.80;;
63882;SDS011;50047;50.596;30.466;2022-10-16T06:44:14;20.30;;;11.60;;
63882;SDS011;50047;50.596;30.466;2022-10-16T06:46:41;18.00;;;10.00;;
63882;SDS011;50047;50.596;30.466;2022-10-16T06:49:08;15.20;;;9.30;;
63882;SDS011;50047;50.596;30.466;2022-10-16T06:51:35;16.00;;;8.90;;
63882;SDS011;50047;50.596;30.466;2022-10-16T06:54:09;15.60;;;9.00;;
63882;SDS011;50047;50.596;30.466;2022-10-16T06:56:36;18.10;;;9.40;;
63882;SDS011;50047;50.596;30.466;2022-10-16T06:59:04;15.80;;;8.80;;
63882;SDS011;50047;50.596;30.466;2022-10-16T07:01:31;15.60;;;9.30;;
63882;SDS011;50047;50.596;30.466;2022-10-16T07:04:00;15.60;;;9.00;;
63882;SDS011;50047;50.596;30.466;2022-10-16T07:06:30;16.00;;;8.70;;
63882;SDS011;50047;50.596;30.466;2022-10-16T07:09:00;13.80;;;7.90;;
63882;SDS011;50047;50.596;30.466;2022-10-16T07:11:29;12.60;;;8.40;;
63882;SDS011;50047;50.596;30.466;2022-10-16T07:13:56;15.70;;;9.00;;
63882;SDS011;50047;50.596;30.466;2022-10-16T07:16:24;16.00;;;8.10;;
63882;SDS011;50047;50.596;30.466;2022-10-16T07:18:54;12.10;;;6.30;;
63882;SDS011;50047;50.596;30.466;2022-10-16T07:21:31;14.60;;;6.50;;
63882;SDS011;50047;50.596;30.466;2022-10-16T07:24:03;12.50;;;6.80;;
63882;SDS011;50047;50.596;30.466;2022-10-16T07:26:33;9.80;;;5.80;;
63882;SDS011;50047;50.596;30.466;2022-10-16T07:29:02;11.60;;;6.20;;
63882;SDS011;50047;50.596;30.466;2022-10-16T07:31:30;13.20;;;7.20;;
63882;SDS011;50047;50.596;30.466;2022-10-16T07:33:58;13.60;;;8.70;;
63882;SDS011;50047;50.596;30.466;2022-10-16T07:36:26;11.20;;;7.00;;
63882;SDS011;50047;50.596;30.466;2022-10-16T07:38:54;11.80;;;6.00;;
63882;SDS011;50047;50.596;30.466;2022-10-16T07:41:26;9.40;;;5.50;;
63882;SDS011;50047;50.596;30.466;2022-10-16T07:43:54;17.00;;;5.90;;
63882;SDS011;50047;50.596;30.466;2022-10-16T07:46:23;7.90;;;5.00;;
63882;SDS011;50047;50.596;30.466;2022-10-16T07:48:50;9.60;;;5.30;;
63882;SDS011;50047;50.596;30.466;2022-10-16T07:51:18;11.20;;;5.70;;
63882;SDS011;50047;50.596;30.466;2022-10-16T07:53:46;14.10;;;6.10;;
63882;SDS011;50047;50.596;30.466;2022-10-16T07:56:14;8.20;;;4.80;;
63882;SDS011;50047;50.596;30.466;2022-10-16T07:58:42;10.40;;;4.90;;
63882;SDS011;50047;50.596;30.466;2022-10-16T08:01:11;9.60;;;5.80;;
63882;SDS011;50047;50.596;30.466;2022-10-16T08:03:50;12.20;;;5.80;;
63882;SDS011;50047;50.596;30.466;2022-10-16T08:06:18;12.20;;;5.30;;
63882;SDS011;50047;50.596;30.466;2022-10-16T08:08:53;9.30;;;5.30;;
63882;SDS011;50047;50.596;30.466;2022-10-16T08:11:22;10.10;;;6.30;;
63882;SDS011;50047;50.596;30.466;2022-10-16T08:13:50;12.50;;;6.40;;
63882;SDS011;50047;50.596;30.466;2022-10-16T08:16:17;8.60;;;5.80;;
63882;SDS011;50047;50.596;30.466;2022-10-16T08:18:44;9.70;;;5.10;;
63882;SDS011;50047;50.596;30.466;2022-10-16T08:21:15;9.00;;;5.10;;
63882;SDS011;50047;50.596;30.466;2022-10-16T08:23:47;9.30;;;6.20;;
63882;SDS011;50047;50.596;30.466;2022-10-16T08:26:23;10.80;;;5.70;;
63882;SDS011;50047;50.596;30.466;2022-10-16T08:28:51;9.60;;;5.60;;
63882;SDS011;50047;50.596;30.466;2022-10-16T08:31:19;7.80;;;4.50;;
63882;SDS011;50047;50.596;30.466;2022-10-16T08:33:47;7.90;;;3.70;;
63882;SDS011;50047;50.596;30.466;2022-10-16T08:36:15;6.50;;;3.80;;
63882;SDS011;50047;50.596;30.466;2022-10-16T08:38:43;6.00;;;3.20;;
63882;SDS011;50047;50.596;30.466;2022-10-16T08:43:48;8.40;;;3.60;;
63882;SDS011;50047;50.596;30.466;2022-10-16T08:46:34;9.10;;;3.60;;
63882;SDS011;50047;50.596;30.466;2022-10-16T08:49:03;9.00;;;3.80;;
63882;SDS011;50047;50.596;30.466;2022-10-16T08:51:35;6.70;;;3.30;;
63882;SDS011;50047;50.596;30.466;2022-10-16T08:54:52;8.70;;;3.80;;
63882;SDS011;50047;50.596;30.466;2022-10-16T08:57:09;8.20;;;3.50;;
63882;SDS011;50047;50.596;30.466;2022-10-16T08:59:39;7.10;;;3.10;;
63882;SDS011;50047;50.596;30.466;2022-10-16T09:02:40;9.80;;;3.50;;
63882;SDS011;50047;50.596;30.466;2022-10-16T09:14:07;8.00;;;3.30;;
63882;SDS011;50047;50.596;30.466;2022-10-16T09:16:45;6.40;;;3.10;;
63882;SDS011;50047;50.596;30.466;2022-10-16T09:19:37;7.30;;;3.60;;
63882;SDS011;50047;50.596;30.466;2022-10-16T09:22:15;5.50;;;2.90;;
63882;SDS011;50047;50.596;30.466;2022-10-16T09:27:14;7.60;;;2.80;;
63882;SDS011;50047;50.596;30.466;2022-10-16T09:29:41;4.70;;;2.60;;
63882;SDS011;50047;50.596;30.466;2022-10-16T09:32:10;8.60;;;2.70;;
63882;SDS011;50047;50.596;30.466;2022-10-16T09:34:42;5.50;;;2.80;;
63882;SDS011;50047;50.596;30.466;2022-10-16T09:37:14;12.10;;;2.70;;
63882;SDS011;50047;50.596;30.466;2022-10-16T09:39:49;3.90;;;2.50;;
63882;SDS011;50047;50.596;30.466;2022-10-16T09:42:22;3.50;;;2.60;;
63882;SDS011;50047;50.596;30.466;2022-10-16T09:44:57;6.20;;;2.90;;
63882;SDS011;50047;50.596;30.466;2022-10-16T09:47:25;5.00;;;2.80;;
63882;SDS011;50047;50.596;30.466;2022-10-16T09:50:03;10.20;;;3.00;;
63882;SDS011;50047;50.596;30.466;2022-10-16T09:52:32;5.20;;;3.10;;
63882;SDS011;50047;50.596;30.466;2022-10-16T09:55:00;5.40;;;3.30;;
63882;SDS011;50047;50.596;30.466;2022-10-16T09:57:30;7.80;;;3.40;;
63882;SDS011;50047;50.596;30.466;2022-10-16T09:59:58;7.60;;;3.00;;
63882;SDS011;50047;50.596;30.466;2022-10-16T10:02:28;8.80;;;3.20;;
63882;SDS011;50047;50.596;30.466;2022-10-16T10:04:58;8.90;;;3.50;;
63882;SDS011;50047;50.596;30.466;2022-10-16T10:07:26;11.20;;;3.70;;
63882;SDS011;50047;50.596;30.466;2022-10-16T10:09:56;7.20;;;3.40;;
63882;SDS011;50047;50.596;30.466;2022-10-16T10:12:25;8.90;;;3.20;;
63882;SDS011;50047;50.596;30.466;2022-10-16T10:14:55;9.10;;;3.70;;
63882;SDS011;50047;50.596;30.466;2022-10-16T10:17:27;8.10;;;3.40;;
63882;SDS011;50047;50.596;30.466;2022-10-16T10:19:59;7.20;;;3.40;;
63882;SDS011;50047;50.596;30.466;2022-10-16T10:22:44;5.30;;;3.50;;
63882;SDS011;50047;50.596;30.466;2022-10-16T10:28:10;6.60;;;3.20;;
63882;SDS011;50047;50.596;30.466;2022-10-16T10:31:06;4.60;;;2.80;;
63882;SDS011;50047;50.596;30.466;2022-10-16T10:36:51;5.30;;;3.10;;
63882;SDS011;50047;50.596;30.466;2022-10-16T10:39:29;5.10;;;3.10;;
63882;SDS011;50047;50.596;30.466;2022-10-16T10:50:07;12.60;;;4.30;;
63882;SDS011;50047;50.596;30.466;2022-10-16T10:55:45;5.90;;;3.40;;
63882;SDS011;50047;50.596;30.466;2022-10-16T11:01:18;4.90;;;2.80;;
63882;SDS011;50047;50.596;30.466;2022-10-16T11:07:05;3.80;;;2.40;;
63882;SDS011;50047;50.596;30.466;2022-10-16T11:09:44;5.90;;;2.80;;
63882;SDS011;50047;50.596;30.466;2022-10-16T11:12:17;6.80;;;3.70;;
63882;SDS011;50047;50.596;30.466;2022-10-16T11:17:23;6.40;;;3.30;;
63882;SDS011;50047;50.596;30.466;2022-10-16T11:20:11;5.10;;;3.00;;
63882;SDS011;50047;50.596;30.466;2022-10-16T11:22:47;5.30;;;2.80;;
63882;SDS011;50047;50.596;30.466;2022-10-16T11:27:59;6.10;;;3.60;;
63882;SDS011;50047;50.596;30.466;2022-10-16T11:30:47;7.50;;;4.00;;
63882;SDS011;50047;50.596;30.466;2022-10-16T11:36:04;6.90;;;3.80;;
63882;SDS011;50047;50.596;30.466;2022-10-16T11:42:03;11.20;;;5.30;;
63882;SDS011;50047;50.596;30.466;2022-10-16T11:44:38;10.80;;;5.00;;
63882;SDS011;50047;50.596;30.466;2022-10-16T11:52:47;7.30;;;4.20;;
63882;SDS011;50047;50.596;30.466;2022-10-16T11:55:39;4.60;;;3.00;;
63882;SDS011;50047;50.596;30.466;2022-10-16T12:01:15;5.10;;;3.50;;
63882;SDS011;50047;50.596;30.466;2022-10-16T12:03:58;5.00;;;2.70;;
63882;SDS011;50047;50.596;30.466;2022-10-16T12:09:40;9.30;;;2.80;;
63882;SDS011;50047;50.596;30.466;2022-10-16T12:12:28;5.30;;;2.70;;
63882;SDS011;50047;50.596;30.466;2022-10-16T12:15:26;4.90;;;2.90;;
63882;SDS011;50047;50.596;30.466;2022-10-16T12:18:22;5.30;;;2.70;;
63882;SDS011;50047;50.596;30.466;2022-10-16T12:20:57;10.40;;;2.60;;
63882;SDS011;50047;50.596;30.466;2022-10-16T12:23:31;5.30;;;2.80;;
63882;SDS011;50047;50.596;30.466;2022-10-16T12:26:00;8.20;;;2.60;;
63882;SDS011;50047;50.596;30.466;2022-10-16T12:28:29;5.70;;;2.30;;
63882;SDS011;50047;50.596;30.466;2022-10-16T12:31:00;2.90;;;2.00;;
63882;SDS011;50047;50.596;30.466;2022-10-16T12:33:30;3.70;;;2.10;;
63882;SDS011;50047;50.596;30.466;2022-10-16T12:36:02;4.50;;;2.30;;
63882;SDS011;50047;50.596;30.466;2022-10-16T12:38:52;3.70;;;2.30;;
63882;SDS011;50047;50.596;30.466;2022-10-16T12:41:24;6.90;;;2.50;;
63882;SDS011;50047;50.596;30.466;2022-10-16T12:43:59;4.30;;;2.10;;
63882;SDS011;50047;50.596;30.466;2022-10-16T12:49:14;3.70;;;2.20;;
63882;SDS011;50047;50.596;30.466;2022-10-16T12:51:48;4.10;;;2.40;;
63882;SDS011;50047;50.596;30.466;2022-10-16T12:59:59;6.40;;;2.10;;
63882;SDS011;50047;50.596;30.466;2022-10-16T13:11:33;5.40;;;2.10;;
63882;SDS011;50047;50.596;30.466;2022-10-16T13:16:57;4.50;;;2.20;;
63882;SDS011;50047;50.596;30.466;2022-10-16T13:23:21;3.80;;;2.20;;
63882;SDS011;50047;50.596;30.466;2022-10-16T13:28:33;6.80;;;2.20;;
63882;SDS011;50047;50.596;30.466;2022-10-16T13:31:02;8.40;;;2.70;;
63882;SDS011;50047;50.596;30.466;2022-10-16T13:33:33;13.00;;;2.90;;
63882;SDS011;50047;50.596;30.466;2022-10-16T13:36:02;7.00;;;3.10;;
63882;SDS011;50047;50.596;30.466;2022-10-16T13:38:34;5.00;;;2.70;;
63882;SDS011;50047;50.596;30.466;2022-10-16T13:46:19;7.40;;;3.10;;
63882;SDS011;50047;50.596;30.466;2022-10-16T13:49:01;6.60;;;3.30;;
63882;SDS011;50047;50.596;30.466;2022-10-16T13:51:31;8.70;;;3.30;;
63882;SDS011;50047;50.596;30.466;2022-10-16T13:53:59;9.70;;;3.20;;
63882;SDS011;50047;50.596;30.466;2022-10-16T13:56:27;6.60;;;3.40;;
63882;SDS011;50047;50.596;30.466;2022-10-16T13:59:06;5.40;;;3.00;;
63882;SDS011;50047;50.596;30.466;2022-10-16T14:01:49;11.90;;;3.80;;
63882;SDS011;50047;50.596;30.466;2022-10-16T14:04:20;10.10;;;4.00;;
63882;SDS011;50047;50.596;30.466;2022-10-16T14:06:49;6.70;;;3.30;;
63882;SDS011;50047;50.596;30.466;2022-10-16T14:09:21;11.20;;;5.40;;
63882;SDS011;50047;50.596;30.466;2022-10-16T14:12:17;5.90;;;3.30;;
63882;SDS011;50047;50.596;30.466;2022-10-16T14:14:46;8.90;;;3.30;;
63882;SDS011;50047;50.596;30.466;2022-10-16T14:17:15;13.70;;;3.90;;
63882;SDS011;50047;50.596;30.466;2022-10-16T14:19:50;8.00;;;3.80;;
63882;SDS011;50047;50.596;30.466;2022-10-16T14:22:33;8.60;;;3.60;;
63882;SDS011;50047;50.596;30.466;2022-10-16T14:28:03;9.30;;;4.40;;
63882;SDS011;50047;50.596;30.466;2022-10-16T14:30:58;10.50;;;4.60;;
63882;SDS011;50047;50.596;30.466;2022-10-16T14:36:17;12.20;;;5.90;;
63882;SDS011;50047;50.596;30.466;2022-10-16T14:39:02;11.80;;;5.70;;
63882;SDS011;50047;50.596;30.466;2022-10-16T14:41:31;12.50;;;4.80;;
63882;SDS011;50047;50.596;30.466;2022-10-16T14:44:03;11.20;;;5.80;;
63882;SDS011;50047;50.596;30.466;2022-10-16T14:46:38;11.90;;;5.90;;
63882;SDS011;50047;50.596;30.466;2022-10-16T14:51:37;13.70;;;5.70;;
63882;SDS011;50047;50.596;30.466;2022-10-16T14:54:11;13.00;;;5.90;;
63882;SDS011;50047;50.596;30.466;2022-10-16T14:56:56;9.30;;;5.60;;
63882;SDS011;50047;50.596;30.466;2022-10-16T14:59:38;10.40;;;5.30;;
63882;SDS011;50047;50.596;30.466;2022-10-16T15:04:47;10.30;;;5.70;;
63882;SDS011;50047;50.596;30.466;2022-10-16T15:07:15;10.70;;;6.20;;
63882;SDS011;50047;50.596;30.466;2022-10-16T15:09:42;9.50;;;5.60;;
63882;SDS011;50047;50.596;30.466;2022-10-16T15:12:15;13.20;;;6.50;;
63882;SDS011;50047;50.596;30.466;2022-10-16T15:14:43;16.60;;;6.00;;
63882;SDS011;50047;50.596;30.466;2022-10-16T15:17:10;15.30;;;6.20;;
63882;SDS011;50047;50.596;30.466;2022-10-16T15:19:38;12.20;;;6.40;;
63882;SDS011;50047;50.596;30.466;2022-10-16T15:22:05;13.60;;;7.40;;
63882;SDS011;50047;50.596;30.466;2022-10-16T15:24:32;14.60;;;7.30;;
63882;SDS011;50047;50.596;30.466;2022-10-16T15:26:59;10.80;;;6.20;;
63882;SDS011;50047;50.596;30.466;2022-10-16T15:29:26;10.40;;;6.00;;
63882;SDS011;50047;50.596;30.466;2022-10-16T15:31:53;9.00;;;5.50;;
63882;SDS011;50047;50.596;30.466;2022-10-16T15:34:20;11.60;;;5.00;;
63882;SDS011;50047;50.596;30.466;2022-10-16T15:36:47;10.20;;;5.20;;
63882;SDS011;50047;50.596;30.466;2022-10-16T15:39:15;11.20;;;5.10;;
63882;SDS011;50047;50.596;30.466;2022-10-16T15:41:44;12.80;;;5.50;;
63882;SDS011;50047;50.596;30.466;2022-10-16T15:44:18;11.80;;;5.30;;
63882;SDS011;50047;50.596;30.466;2022-10-16T15:46:46;14.00;;;5.80;;
63882;SDS011;50047;50.596;30.466;2022-10-16T15:49:13;14.90;;;5.00;;
63882;SDS011;50047;50.596;30.466;2022-10-16T15:51:41;10.00;;;5.30;;
63882;SDS011;50047;50.596;30.466;2022-10-16T15:54:09;10.30;;;5.30;;
63882;SDS011;50047;50.596;30.466;2022-10-16T15:56:36;8.70;;;5.00;;
63882;SDS011;50047;50.596;30.466;2022-10-16T15:59:04;11.80;;;5.10;;
63882;SDS011;50047;50.596;30.466;2022-10-16T16:01:35;8.40;;;4.80;;
63882;SDS011;50047;50.596;30.466;2022-10-16T16:04:03;10.00;;;5.10;;
63882;SDS011;50047;50.596;30.466;2022-10-16T16:06:45;11.70;;;4.70;;
63882;SDS011;50047;50.596;30.466;2022-10-16T16:09:13;7.50;;;4.70;;
63882;SDS011;50047;50.596;30.466;2022-10-16T16:11:41;9.30;;;5.10;;
63882;SDS011;50047;50.596;30.466;2022-10-16T16:14:14;8.80;;;4.90;;
63882;SDS011;50047;50.596;30.466;2022-10-16T16:16:41;11.20;;;5.80;;
63882;SDS011;50047;50.596;30.466;2022-10-16T16:19:09;10.70;;;6.10;;
63882;SDS011;50047;50.596;30.466;2022-10-16T16:21:40;11.70;;;6.80;;
63882;SDS011;50047;50.596;30.466;2022-10-16T16:24:07;12.60;;;6.90;;
63882;SDS011;50047;50.596;30.466;2022-10-16T16:26:35;17.40;;;7.80;;
63882;SDS011;50047;50.596;30.466;2022-10-16T16:29:13;16.40;;;8.10;;
63882;SDS011;50047;50.596;30.466;2022-10-16T16:31:42;22.40;;;10.60;;
63882;SDS011;50047;50.596;30.466;2022-10-16T16:34:09;24.70;;;10.10;;
63882;SDS011;50047;50.596;30.466;2022-10-16T16:36:37;18.90;;;10.40;;
63882;SDS011;50047;50.596;30.466;2022-10-16T16:39:06;24.90;;;11.70;;
63882;SDS011;50047;50.596;30.466;2022-10-16T16:41:34;22.30;;;10.90;;
63882;SDS011;50047;50.596;30.466;2022-10-16T16:44:06;21.70;;;11.10;;
63882;SDS011;50047;50.596;30.466;2022-10-16T16:46:35;23.90;;;11.30;;
63882;SDS011;50047;50.596;30.466;2022-10-16T16:49:03;20.40;;;10.50;;
63882;SDS011;50047;50.596;30.466;2022-10-16T16:51:30;23.80;;;12.40;;